Port Canaveral, Florida
Current Conditions -  °F | °C
As of 3:58 PM on Tuesday 27 Jan 2015 (Local Time) from KXMR Reporting Station
Clear Clear  
Wind Chill: 67°   Ceiling: Unl
Heat Index: 67°   Visibility: 10mi
Dew Point: 43°   Wind: 18mph
Humidity: 41%   Direction: 270°W
Pressure: 29.89"   Gusts: 23mph
Location:  28.3971°N, 80.6086°W
Report Text: KXMR 272058Z AUTO 27016G20KT 10SM CLR 20/06 A2989 RMK AO2 SLP125 T01950060
Loading
Personal Weather Stations






























Interactive Weather Map New forecast layout! Learn more

10-Day Weather Forecast

Advertisements
Track Severe Weather on mobile